Time;durP1;ratioP1;P1;durP2;ratioP2;P2;SDS_P1;SDS_P2;PMS_P1;PMS_P2;Temp;Humidity;BMP_temperature;BMP_pressure;BME280_temperature;BME280_humidity;BME280_pressure;Samples;Min_cycle;Max_cycle;Signal;HPM_P1;HPM_P2
2022/02/25 00:00:14;;;;;;;13.77;3.42;;;;;;;2.95;82.94;101120.84;5031075;28;20114;-85
2022/02/25 00:02:41;;;;;;;8.50;2.33;;;;;;;2.92;82.88;101127.72;5011274;28;20061;-85
2022/02/25 00:05:09;;;;;;;2.85;1.30;;;;;;;2.92;83.20;101121.41;5013385;28;20099;-88
2022/02/25 00:07:36;;;;;;;12.45;3.30;;;;;;;2.92;83.37;101126.88;5014834;28;20053;-86
2022/02/25 00:10:04;;;;;;;4.43;1.67;;;;;;;2.92;83.38;101135.09;4980403;28;21005;-87
2022/02/25 00:12:32;;;;;;;6.25;1.85;;;;;;;2.90;83.03;101146.31;5013595;28;20667;-87
2022/02/25 00:15:00;;;;;;;4.50;1.70;;;;;;;2.91;83.17;101145.19;4999391;28;20131;-86
2022/02/25 00:17:27;;;;;;;13.05;3.78;;;;;;;2.90;83.32;101157.25;4997390;28;20140;-86
2022/02/25 00:19:55;;;;;;;4.97;1.42;;;;;;;2.89;83.17;101166.56;4993823;28;20049;-87
2022/02/25 00:22:23;;;;;;;7.55;1.63;;;;;;;2.87;83.57;101168.75;4982670;28;20891;-85
2022/02/25 00:24:50;;;;;;;10.73;2.22;;;;;;;2.90;83.04;101186.53;4997991;28;20107;-85
2022/02/25 00:27:17;;;;;;;4.15;1.75;;;;;;;2.89;83.10;101182.97;5015198;28;20502;-86
2022/02/25 00:29:47;;;;;;;7.57;1.80;;;;;;;2.87;83.07;101200.75;4977744;28;20132;-86
2022/02/25 00:32:14;;;;;;;8.07;1.55;;;;;;;2.87;83.58;101201.56;5016364;28;20049;-86
2022/02/25 00:34:41;;;;;;;7.78;1.98;;;;;;;2.83;83.74;101210.63;4997897;28;20052;-87
2022/02/25 00:37:09;;;;;;;7.18;2.33;;;;;;;2.83;83.65;101216.91;5013964;28;20148;-85
2022/02/25 00:39:36;;;;;;;6.65;1.75;;;;;;;2.80;83.48;101217.50;4973607;28;20053;-86
2022/02/25 00:42:05;;;;;;;12.70;4.03;;;;;;;2.82;83.34;101220.75;5014200;28;20476;-86
2022/02/25 00:44:32;;;;;;;8.50;1.65;;;;;;;2.82;83.92;101215.28;5018494;28;20037;-87
2022/02/25 00:46:59;;;;;;;7.55;1.90;;;;;;;2.81;83.53;101218.28;5035388;28;20052;-87
2022/02/25 00:49:26;;;;;;;5.28;1.60;;;;;;;2.81;83.40;101227.31;5017431;28;20049;-87
2022/02/25 00:51:54;;;;;;;6.63;1.77;;;;;;;2.80;83.39;101233.06;5001469;28;20186;-84
2022/02/25 00:54:21;;;;;;;5.50;1.30;;;;;;;2.80;83.40;101233.91;5017550;28;20097;-86
2022/02/25 00:56:48;;;;;;;20.33;2.05;;;;;;;2.79;83.44;101245.91;5002101;28;20038;-88
2022/02/25 00:59:15;;;;;;;4.57;1.00;;;;;;;2.76;83.74;101265.63;5000943;28;20079;-87
2022/02/25 01:01:42;;;;;;;9.32;2.95;;;;;;;2.77;83.68;101260.97;5000982;28;20569;-87
2022/02/25 01:04:11;;;;;;;8.25;2.00;;;;;;;2.76;83.78;101259.31;5001635;28;20124;-86
2022/02/25 01:06:38;;;;;;;10.20;2.47;;;;;;;2.77;83.50;101261.78;5017342;28;20044;-86
2022/02/25 01:09:05;;;;;;;7.75;2.00;;;;;;;2.78;83.67;101270.81;5000101;28;20044;-87
2022/02/25 01:11:33;;;;;;;6.20;1.52;;;;;;;2.77;83.36;101250.84;4998204;28;20132;-86
2022/02/25 01:14:00;;;;;;;8.90;2.08;;;;;;;2.76;83.57;101275.72;4984734;28;20064;-87
2022/02/25 01:16:27;;;;;;;8.07;2.58;;;;;;;2.75;83.44;101279.56;5000461;28;20829;-86
2022/02/25 01:18:55;;;;;;;9.15;2.25;;;;;;;2.74;83.21;101275.19;5012993;28;21961;-86
2022/02/25 01:21:22;;;;;;;8.30;1.75;;;;;;;2.72;83.68;101275.50;5000693;28;20158;-85
2022/02/25 01:23:51;;;;;;;6.47;1.92;;;;;;;2.72;83.78;101285.59;5020015;28;20956;-85
2022/02/25 01:26:18;;;;;;;8.90;2.47;;;;;;;2.72;83.65;101300.09;5018810;28;20128;-86
2022/02/25 01:28:45;;;;;;;10.00;2.38;;;;;;;2.73;83.69;101307.19;5018072;28;20052;-87
2022/02/25 01:31:13;;;;;;;4.97;1.52;;;;;;;2.73;83.76;101303.63;5016930;28;20053;-85
2022/02/25 01:33:41;;;;;;;8.93;1.80;;;;;;;2.74;83.99;101310.72;5033534;28;20073;-85
2022/02/25 01:36:09;;;;;;;13.48;2.03;;;;;;;2.74;84.05;101306.09;5016924;28;20045;-87
2022/02/25 01:38:39;;;;;;;5.22;1.67;;;;;;;2.74;83.87;101306.09;4999673;28;20045;-87
2022/02/25 01:41:06;;;;;;;4.97;1.20;;;;;;;2.75;83.56;101318.69;4999254;28;20076;-85
2022/02/25 01:43:33;;;;;;;10.40;2.28;;;;;;;2.72;83.79;101327.44;5016134;28;20053;-87
2022/02/25 01:46:00;;;;;;;5.63;1.23;;;;;;;2.71;83.92;101323.06;5016012;28;20728;-85
2022/02/25 01:48:27;;;;;;;11.63;2.90;;;;;;;2.72;84.13;101341.09;4995775;28;20079;-86
2022/02/25 01:50:54;;;;;;;11.88;1.80;;;;;;;2.73;84.32;101341.91;5015917;28;20041;-87
2022/02/25 01:53:22;;;;;;;4.95;1.67;;;;;;;2.71;84.10;101339.44;5022581;28;20052;-86
2022/02/25 01:55:49;;;;;;;8.35;2.22;;;;;;;2.71;84.57;101344.09;4999098;28;20148;-87
2022/02/25 01:58:17;;;;;;;6.88;1.52;;;;;;;2.67;84.56;101352.06;5010749;28;20042;-87
2022/02/25 02:00:45;;;;;;;13.80;2.05;;;;;;;2.69;84.11;101355.31;5031211;28;20080;-86
2022/02/25 02:03:13;;;;;;;10.40;2.13;;;;;;;2.68;84.34;101356.41;5000697;28;20140;-86
2022/02/25 02:05:40;;;;;;;4.65;1.58;;;;;;;2.64;84.82;101360.81;5000658;28;20041;-86
2022/02/25 02:08:08;;;;;;;6.32;1.35;;;;;;;2.65;84.82;101361.63;5016434;28;20052;-87
2022/02/25 02:10:35;;;;;;;10.73;5.20;;;;;;;2.65;84.65;101362.44;4999432;28;20492;-85
2022/02/25 02:13:03;;;;;;;8.02;2.08;;;;;;;2.64;84.74;101360.81;5000751;28;20045;-86
2022/02/25 02:15:30;;;;;;;5.80;1.40;;;;;;;2.63;84.64;101372.81;4983659;28;20054;-87
2022/02/25 02:17:57;;;;;;;14.75;2.53;;;;;;;2.63;84.90;101383.75;5017612;28;20053;-87
2022/02/25 02:20:24;;;;;;;11.15;2.35;;;;;;;2.63;84.87;101386.50;4997092;28;20053;-87
2022/02/25 02:22:51;;;;;;;17.35;3.10;;;;;;;2.60;84.67;101381.56;5015637;28;20064;-87
2022/02/25 02:25:18;;;;;;;4.20;1.95;;;;;;;2.61;85.00;101393.34;5014631;28;20048;-86
2022/02/25 02:30:31;;;;;;;9.48;2.30;;;;;;;2.61;85.24;101399.63;5014864;28;20045;-86
2022/02/25 02:32:58;;;;;;;5.75;2.15;;;;;;;2.62;84.91;101400.44;5015637;28;20042;-86
2022/02/25 02:35:26;;;;;;;7.40;1.75;;;;;;;2.62;85.06;101406.72;4999900;28;20041;-86
2022/02/25 02:37:53;;;;;;;13.55;2.22;;;;;;;2.62;85.25;101401.25;5014332;28;20459;-87
2022/02/25 02:40:20;;;;;;;12.30;2.95;;;;;;;2.63;85.29;101396.59;5012406;28;20495;-87
2022/02/25 02:42:47;;;;;;;14.27;2.10;;;;;;;2.63;85.27;101413.00;5015654;28;20044;-87
2022/02/25 02:45:15;;;;;;;13.48;2.20;;;;;;;2.64;85.35;101407.28;5016038;28;20049;-86
2022/02/25 02:47:43;;;;;;;9.18;2.88;;;;;;;2.65;85.04;101421.78;4995915;28;20049;-86
2022/02/25 02:50:11;;;;;;;7.93;2.03;;;;;;;2.64;85.30;101425.59;5031846;28;20042;-86
2022/02/25 02:52:39;;;;;;;8.38;2.00;;;;;;;2.64;85.53;101436.53;5033943;28;20041;-86
2022/02/25 02:55:07;;;;;;;13.25;4.05;;;;;;;2.62;85.26;101425.06;5012562;28;20045;-86
2022/02/25 02:57:34;;;;;;;12.13;1.90;;;;;;;2.63;85.27;101426.66;5022024;28;20059;-87
2022/02/25 03:00:03;;;;;;;4.18;1.67;;;;;;;2.64;85.11;101425.59;5013719;28;20052;-86
2022/02/25 03:02:30;;;;;;;8.82;1.60;;;;;;;2.63;85.44;101435.69;5000538;28;20060;-87
2022/02/25 03:04:58;;;;;;;11.00;2.90;;;;;;;2.62;85.27;101433.25;5013012;28;20049;-86
2022/02/25 03:07:25;;;;;;;7.47;1.88;;;;;;;2.62;85.78;101422.31;5014804;28;20135;-86
2022/02/25 03:09:52;;;;;;;14.07;2.25;;;;;;;2.63;85.63;101429.41;5015820;28;20521;-86
2022/02/25 03:12:20;;;;;;;6.80;2.25;;;;;;;2.62;85.18;101428.59;5016152;28;20421;-86
2022/02/25 03:14:47;;;;;;;10.05;2.65;;;;;;;2.62;85.78;101434.03;4997574;28;20045;-84
2022/02/25 03:17:14;;;;;;;13.98;2.88;;;;;;;2.62;85.74;101444.97;5015303;28;20049;-86
2022/02/25 03:19:44;;;;;;;10.05;1.80;;;;;;;2.61;85.42;101442.53;4997714;28;20049;-87
2022/02/25 03:22:12;;;;;;;8.05;1.80;;;;;;;2.60;85.62;101452.66;5015724;28;20137;-85
2022/02/25 03:24:56;;;;;;;6.45;1.40;;;;;;;2.59;85.59;101445.56;4982848;28;20072;-86
2022/02/25 03:27:24;;;;;;;12.95;3.55;;;;;;;2.58;85.80;101452.09;5029335;28;20493;-86
2022/02/25 03:29:52;;;;;;;6.70;2.20;;;;;;;2.60;85.48;101438.97;5015346;28;20041;-88
2022/02/25 03:32:23;;;;;;;11.25;3.28;;;;;;;2.59;85.91;101445.56;5017409;28;20095;-86
2022/02/25 03:34:50;;;;;;;13.68;1.88;;;;;;;2.59;85.83;101453.75;5014494;28;20144;-83
2022/02/25 03:37:18;;;;;;;8.02;1.30;;;;;;;2.57;86.02;101452.41;5020572;28;20069;-86
2022/02/25 03:39:46;;;;;;;7.18;1.88;;;;;;;2.57;85.64;101463.31;4985689;28;20149;-85
2022/02/25 03:42:13;;;;;;;11.70;2.85;;;;;;;2.57;85.87;101457.84;5019666;28;20045;-86
2022/02/25 03:44:41;;;;;;;8.98;2.30;;;;;;;2.54;85.74;101472.91;5019620;28;20049;-86
2022/02/25 03:47:08;;;;;;;8.80;2.03;;;;;;;2.54;85.72;101481.09;5017926;28;20053;-85
2022/02/25 03:49:35;;;;;;;11.05;1.92;;;;;;;2.53;85.99;101479.44;5019836;28;20505;-85
2022/02/25 03:52:03;;;;;;;10.85;2.00;;;;;;;2.51;85.58;101478.91;5035374;28;20042;-86
2022/02/25 03:54:30;;;;;;;6.40;1.70;;;;;;;2.50;85.87;101477.25;5017647;28;20038;-87
2022/02/25 03:56:57;;;;;;;7.25;2.67;;;;;;;2.49;85.91;101481.06;5034752;28;20041;-86
2022/02/25 03:59:25;;;;;;;8.90;1.90;;;;;;;2.49;86.11;101483.81;5018655;28;20521;-85
2022/02/25 04:01:52;;;;;;;9.38;3.03;;;;;;;2.46;85.97;101485.16;4996970;28;20072;-86
2022/02/25 04:04:20;;;;;;;5.60;1.08;;;;;;;2.46;86.21;101500.78;5013883;28;20060;-86
2022/02/25 04:06:48;;;;;;;17.55;3.28;;;;;;;2.45;86.28;101499.94;5003643;28;20412;-86
2022/02/25 04:09:19;;;;;;;5.85;1.40;;;;;;;2.44;85.98;101503.75;5000922;28;20144;-85
2022/02/25 04:11:52;;;;;;;8.73;2.13;;;;;;;2.42;86.01;101516.06;5003274;28;21475;-86
2022/02/25 04:14:20;;;;;;;4.55;1.38;;;;;;;2.42;86.43;101510.59;5019048;28;20132;-86
2022/02/25 04:16:49;;;;;;;9.82;2.17;;;;;;;2.42;86.60;101516.88;5001611;28;20063;-86
2022/02/25 04:19:18;;;;;;;5.35;1.58;;;;;;;2.42;86.28;101514.16;5001057;28;20049;-86
2022/02/25 04:21:46;;;;;;;15.38;2.67;;;;;;;2.43;85.77;101515.81;5012451;28;20147;-86
2022/02/25 04:24:14;;;;;;;6.90;1.52;;;;;;;2.43;85.90;101514.97;4997839;28;20136;-86
2022/02/25 04:26:44;;;;;;;11.43;2.70;;;;;;;2.41;86.11;101525.34;4997532;28;20459;-86
2022/02/25 04:29:12;;;;;;;5.28;1.33;;;;;;;2.40;86.21;101535.47;5030982;28;20045;-86
2022/02/25 04:31:40;;;;;;;18.17;3.00;;;;;;;2.38;86.11;101543.09;4981059;28;20076;-85
2022/02/25 04:34:08;;;;;;;8.13;2.53;;;;;;;2.39;86.37;101547.47;4996682;28;20045;-87
2022/02/25 04:36:38;;;;;;;6.35;1.20;;;;;;;2.39;86.46;101550.22;4996560;28;20049;-86
2022/02/25 04:39:07;;;;;;;7.88;2.35;;;;;;;2.42;86.31;101548.84;5032681;28;20060;-86
2022/02/25 04:41:36;;;;;;;10.63;3.33;;;;;;;2.42;86.36;101557.03;5028082;28;20095;-85
2022/02/25 04:44:04;;;;;;;13.10;2.50;;;;;;;2.43;86.55;101561.44;4999484;28;20061;-86
2022/02/25 04:46:32;;;;;;;12.10;2.08;;;;;;;2.44;86.50;101565.78;4981117;28;20056;-85
2022/02/25 04:48:59;;;;;;;14.70;3.53;;;;;;;2.44;86.23;101565.78;5015597;28;20045;-85
2022/02/25 04:51:29;;;;;;;7.80;3.38;;;;;;;2.44;86.72;101568.53;5012779;28;20049;-85
2022/02/25 04:53:56;;;;;;;9.23;2.03;;;;;;;2.46;86.61;101580.03;4961930;28;20509;-86
2022/02/25 04:56:24;;;;;;;7.05;2.00;;;;;;;2.46;86.64;101578.09;5013955;28;20120;-86
2022/02/25 04:58:51;;;;;;;7.85;2.22;;;;;;;2.46;86.21;101577.28;5014089;28;20969;-86
2022/02/25 05:01:19;;;;;;;16.60;2.55;;;;;;;2.46;86.44;101585.50;5010022;28;20099;-86
2022/02/25 05:03:46;;;;;;;11.40;1.92;;;;;;;2.45;86.52;101586.56;5014281;28;20517;-85
2022/02/25 05:06:13;;;;;;;11.30;2.03;;;;;;;2.46;86.41;101583.56;5013421;28;20045;-86
2022/02/25 05:08:41;;;;;;;11.48;2.65;;;;;;;2.46;86.09;101582.75;5014278;28;20048;-86
2022/02/25 05:11:14;;;;;;;13.55;2.58;;;;;;;2.45;86.52;101583.84;5029674;28;20084;-86
2022/02/25 05:13:42;;;;;;;15.18;3.10;;;;;;;2.43;86.86;101589.59;5012717;28;20049;-85
2022/02/25 05:21:40;;;;;;;12.15;2.47;;;;;;;2.45;86.58;101597.50;5013865;28;20136;-83
2022/02/25 05:24:12;;;;;;;;;;;;;;;2.42;87.53;101603.50;4983023;28;20049;-84
2022/02/25 05:26:40;;;;;;;14.82;2.50;;;;;;;2.42;86.74;101606.25;5015524;28;20476;-83
2022/02/25 05:29:09;;;;;;;11.77;1.80;;;;;;;2.40;86.81;101611.16;5019748;28;20523;-83
2022/02/25 05:31:37;;;;;;;15.40;5.47;;;;;;;2.38;86.68;101607.88;5019601;28;20825;-83
2022/02/25 05:34:04;;;;;;;20.23;4.68;;;;;;;2.37;86.93;101617.16;5002569;28;20834;-85
2022/02/25 05:36:32;;;;;;;11.63;2.45;;;;;;;2.38;86.59;101613.34;4999613;28;20041;-83
2022/02/25 05:39:00;;;;;;;12.07;2.25;;;;;;;2.36;86.86;101632.72;5017687;28;20048;-84
2022/02/25 05:41:28;;;;;;;8.18;2.20;;;;;;;2.37;86.91;101622.63;5015117;28;20053;-84
2022/02/25 05:43:55;;;;;;;7.93;2.80;;;;;;;2.36;87.03;101629.16;5032633;28;20045;-83
2022/02/25 05:46:22;;;;;;;14.15;2.90;;;;;;;2.35;86.87;101641.22;5000011;28;20052;-84
2022/02/25 05:48:52;;;;;;;12.18;2.10;;;;;;;2.36;87.02;101642.84;4985391;28;20513;-83
2022/02/25 05:51:19;;;;;;;24.10;4.72;;;;;;;2.33;86.57;101643.41;5001035;28;20053;-83
2022/02/25 05:53:46;;;;;;;15.32;2.97;;;;;;;2.33;86.69;101659.78;5002119;28;20056;-84
2022/02/25 05:56:13;;;;;;;8.07;1.90;;;;;;;2.31;86.93;101665.50;5018246;28;20057;-82
2022/02/25 05:58:41;;;;;;;11.45;1.60;;;;;;;2.32;86.72;101669.06;5016149;28;20049;-84
2022/02/25 06:01:08;;;;;;;10.32;2.95;;;;;;;2.31;86.86;101675.59;4999881;28;20045;-83
2022/02/25 06:03:36;;;;;;;12.13;4.60;;;;;;;2.31;86.95;101678.34;5013051;28;20064;-84
2022/02/25 06:06:03;;;;;;;16.55;2.50;;;;;;;2.31;86.88;101679.16;5015638;28;20052;-84
2022/02/25 06:08:30;;;;;;;10.68;3.17;;;;;;;2.31;86.85;101679.16;5032570;28;20093;-83
2022/02/25 06:10:57;;;;;;;24.55;2.60;;;;;;;2.29;86.92;101689.53;5015707;28;20048;-84
2022/02/25 06:13:25;;;;;;;11.80;2.90;;;;;;;2.26;87.53;101689.25;4987826;28;20056;-84
2022/02/25 06:15:52;;;;;;;12.32;2.25;;;;;;;2.27;87.21;101701.84;5014572;28;20053;-83
2022/02/25 06:18:19;;;;;;;15.77;2.30;;;;;;;2.28;87.29;101706.19;5016212;28;20147;-83
2022/02/25 06:20:47;;;;;;;14.93;2.90;;;;;;;2.28;87.30;101714.38;5013942;28;20879;-82
2022/02/25 06:23:15;;;;;;;10.48;2.38;;;;;;;2.27;86.84;101712.75;5018418;28;20578;-83
2022/02/25 06:25:42;;;;;;;15.38;3.00;;;;;;;2.26;86.94;101709.19;5009038;28;20045;-83
2022/02/25 06:28:09;;;;;;;17.63;3.03;;;;;;;2.24;87.18;101716.03;4995265;28;20065;-83
2022/02/25 06:30:36;;;;;;;10.57;2.47;;;;;;;2.21;87.75;101730.22;5015425;28;20127;-82
2022/02/25 06:33:03;;;;;;;16.75;3.78;;;;;;;2.21;87.57;101717.38;5015085;28;20033;-84
2022/02/25 06:35:30;;;;;;;11.43;3.63;;;;;;;2.20;87.84;101734.00;5012860;28;20080;-82
2022/02/25 06:37:57;;;;;;;19.75;3.58;;;;;;;2.23;87.44;101747.16;5015630;28;20049;-83
2022/02/25 06:40:25;;;;;;;10.30;2.58;;;;;;;2.23;87.25;101747.16;5020899;28;20516;-83
2022/02/25 06:42:53;;;;;;;11.15;3.08;;;;;;;2.20;87.69;101748.50;5021314;28;20103;-83
2022/02/25 06:45:20;;;;;;;19.67;3.17;;;;;;;2.21;87.40;101746.59;5020701;28;20048;-83
2022/02/25 06:47:48;;;;;;;14.55;2.72;;;;;;;2.22;87.51;101756.44;5020809;28;20048;-83
2022/02/25 06:50:17;;;;;;;15.13;3.38;;;;;;;2.20;87.48;101759.44;5037599;28;20065;-83
2022/02/25 06:52:45;;;;;;;10.98;2.45;;;;;;;2.23;87.18;101763.53;5019753;28;20136;-83
2022/02/25 06:55:14;;;;;;;14.52;2.80;;;;;;;2.22;87.11;101768.22;5004180;28;20056;-83
2022/02/25 06:58:04;;;;;;;19.42;2.58;;;;;;;2.21;87.26;101773.91;5004926;28;20045;-84
2022/02/25 07:00:32;;;;;;;19.10;3.25;;;;;;;2.21;87.22;101776.66;5002432;28;20057;-83
2022/02/25 07:02:59;;;;;;;14.25;2.55;;;;;;;2.21;87.07;101790.31;5020156;28;20058;-83
2022/02/25 07:05:27;;;;;;;15.40;3.67;;;;;;;2.19;87.20;101793.31;5004168;28;20056;-84
2022/02/25 07:07:55;;;;;;;17.05;2.70;;;;;;;2.17;87.37;101792.72;5020924;28;20045;-84
2022/02/25 07:10:28;;;;;;;16.77;6.25;;;;;;;2.21;86.92;101795.78;5004204;28;20045;-83
2022/02/25 07:12:55;;;;;;;16.08;2.65;;;;;;;2.19;87.33;101801.50;5037695;28;20056;-83
2022/02/25 07:15:22;;;;;;;19.02;3.60;;;;;;;2.19;86.96;101811.63;5020226;28;20122;-83
2022/02/25 07:17:49;;;;;;;15.05;4.00;;;;;;;2.19;87.10;101822.53;4989095;28;20405;-84
2022/02/25 07:20:16;;;;;;;14.95;2.65;;;;;;;2.16;87.25;101818.44;5018776;28;20132;-84
2022/02/25 07:22:48;;;;;;;19.48;3.58;;;;;;;2.16;87.00;101834.00;5016970;28;20512;-82
2022/02/25 07:25:17;;;;;;;16.33;3.40;;;;;;;2.15;87.04;101814.03;5033142;28;20057;-83
2022/02/25 07:27:45;;;;;;;13.30;3.17;;;;;;;2.15;87.41;101805.84;5002554;28;20081;-84
2022/02/25 07:30:13;;;;;;;15.90;3.25;;;;;;;2.16;87.62;101817.59;5019431;28;20041;-83
2022/02/25 07:32:41;;;;;;;15.75;2.60;;;;;;;2.17;87.37;101830.19;5009996;28;20119;-82
2022/02/25 07:35:11;;;;;;;21.90;4.00;;;;;;;2.17;87.60;101835.66;5016919;28;20191;-83
2022/02/25 07:37:39;;;;;;;18.67;3.00;;;;;;;2.17;87.44;101832.91;5034033;28;20042;-85
2022/02/25 07:40:08;;;;;;;10.10;1.88;;;;;;;2.21;87.24;101839.47;4986620;28;20144;-80
2022/02/25 07:42:36;;;;;;;14.18;2.97;;;;;;;2.22;87.29;101846.59;5035430;28;20628;-80
2022/02/25 07:45:03;;;;;;;17.33;2.80;;;;;;;2.23;87.04;101842.78;5014153;28;20037;-80
2022/02/25 07:47:30;;;;;;;21.00;4.00;;;;;;;2.25;87.19;101851.56;5017181;28;20144;-81
2022/02/25 07:49:58;;;;;;;12.85;2.83;;;;;;;2.27;87.32;101857.56;5015433;28;20075;-81
2022/02/25 07:52:27;;;;;;;10.82;2.70;;;;;;;2.28;87.17;101856.47;4999051;28;20060;-80
2022/02/25 07:54:55;;;;;;;19.42;5.82;;;;;;;2.30;86.99;101870.72;5013732;28;20096;-81
2022/02/25 07:57:25;;;;;;;16.15;3.53;;;;;;;2.33;87.06;101872.91;5015136;28;20496;-82
2022/02/25 08:00:15;;;;;;;19.02;3.13;;;;;;;2.35;87.32;101873.47;4985880;28;20045;-82
2022/02/25 08:02:43;;;;;;;13.68;3.05;;;;;;;2.37;87.20;101866.66;5006782;28;20552;-82
2022/02/25 08:05:11;;;;;;;11.35;2.85;;;;;;;2.39;87.15;101883.59;5016399;28;20068;-82
2022/02/25 08:07:39;;;;;;;17.83;2.65;;;;;;;2.42;86.84;101888.53;5018993;28;20049;-82
2022/02/25 08:10:06;;;;;;;18.42;5.65;;;;;;;2.44;86.95;101883.63;5013767;28;20049;-82
2022/02/25 08:12:39;;;;;;;14.15;3.38;;;;;;;2.48;87.13;101886.66;5000055;28;20077;-82
2022/02/25 08:15:07;;;;;;;16.90;2.65;;;;;;;2.50;86.92;101898.16;5001333;28;20126;-81
2022/02/25 08:17:36;;;;;;;9.38;2.28;;;;;;;2.53;86.88;101889.44;5018809;28;20116;-81
2022/02/25 08:20:04;;;;;;;13.43;2.80;;;;;;;2.57;87.12;101901.47;5021317;28;20041;-82
2022/02/25 08:22:32;;;;;;;22.83;3.15;;;;;;;2.61;87.16;101905.34;5018049;28;20053;-81
2022/02/25 08:24:59;;;;;;;12.68;2.67;;;;;;;2.65;87.13;101919.31;5019009;28;20045;-81
2022/02/25 08:27:26;;;;;;;11.85;2.97;;;;;;;2.69;87.17;101917.69;5018652;28;20129;-82
2022/02/25 08:29:54;;;;;;;19.17;3.03;;;;;;;2.75;87.04;101930.31;5017366;28;20052;-82
2022/02/25 08:32:22;;;;;;;9.38;2.92;;;;;;;2.80;87.23;101930.34;5017813;28;20053;-81
2022/02/25 08:34:50;;;;;;;12.90;2.80;;;;;;;2.83;87.21;101933.34;5002099;28;20567;-81
2022/02/25 08:37:19;;;;;;;13.93;2.88;;;;;;;2.90;87.15;101935.84;5035289;28;20045;-82
2022/02/25 08:39:46;;;;;;;11.40;2.83;;;;;;;2.94;86.98;101926.84;4983930;28;20073;-81
2022/02/25 08:42:14;;;;;;;19.35;3.17;;;;;;;2.99;86.82;101932.34;5018590;28;20129;-81
2022/02/25 08:44:42;;;;;;;21.73;4.15;;;;;;;3.05;86.99;101936.75;5019422;28;20048;-82
2022/02/25 08:47:10;;;;;;;20.33;3.30;;;;;;;3.12;87.08;101946.66;5014991;28;20517;-81
2022/02/25 08:49:38;;;;;;;13.27;2.80;;;;;;;3.17;86.66;101944.75;5021293;28;20136;-81
2022/02/25 08:52:09;;;;;;;10.65;2.85;;;;;;;3.25;86.51;101957.09;5018369;28;20551;-81
2022/02/25 08:54:40;;;;;;;14.57;3.33;;;;;;;3.31;86.61;101961.53;5035524;28;20522;-81
2022/02/25 08:57:07;;;;;;;17.83;4.90;;;;;;;3.39;86.82;101952.78;5019009;28;20052;-81
2022/02/25 08:59:34;;;;;;;27.75;3.85;;;;;;;3.47;86.68;101949.50;5001254;28;20104;-81
2022/02/25 09:02:01;;;;;;;12.70;3.42;;;;;;;3.56;86.63;101950.66;5015948;28;20052;-81
2022/02/25 09:04:29;;;;;;;22.10;4.63;;;;;;;3.64;86.68;101961.91;5019793;28;20124;-81
2022/02/25 09:06:56;;;;;;;24.00;6.70;;;;;;;3.74;86.87;101955.63;5022094;28;20057;-81
2022/02/25 09:09:23;;;;;;;32.63;8.25;;;;;;;3.87;86.81;101970.72;5006773;28;20052;-81
2022/02/25 09:11:50;;;;;;;17.80;4.35;;;;;;;4.01;86.89;101958.16;5000686;28;20512;-82
2022/02/25 09:14:26;;;;;;;18.55;3.60;;;;;;;4.18;86.79;101953.25;5017085;28;20046;-84
2022/02/25 09:17:00;;;;;;;14.90;3.72;;;;;;;4.30;86.41;101953.78;4986668;28;20126;-87
2022/02/25 09:19:27;;;;;;;13.73;3.35;;;;;;;4.39;86.57;101965.03;5036487;28;20041;-81
2022/02/25 09:21:54;;;;;;;20.60;3.58;;;;;;;4.40;86.59;101969.41;5021990;28;20045;-81
2022/02/25 09:24:21;;;;;;;15.35;3.03;;;;;;;4.42;86.22;101972.72;5022565;28;20091;-81
2022/02/25 09:26:48;;;;;;;18.02;3.70;;;;;;;4.44;86.33;101976.00;5021269;28;20045;-81
2022/02/25 09:29:15;;;;;;;22.83;3.97;;;;;;;4.46;86.12;101979.28;5039042;28;20076;-81
2022/02/25 09:31:43;;;;;;;13.05;3.63;;;;;;;4.50;85.92;101972.97;5000079;28;20037;-82
2022/02/25 09:34:10;;;;;;;20.30;4.07;;;;;;;4.55;86.13;101977.66;5018666;28;20060;-81
2022/02/25 09:36:37;;;;;;;21.25;3.55;;;;;;;4.60;85.85;101972.97;5023463;28;20045;-81
2022/02/25 09:39:04;;;;;;;11.55;2.60;;;;;;;4.71;85.76;101987.50;4988667;28;20042;-83
2022/02/25 09:41:31;;;;;;;17.20;4.05;;;;;;;4.83;85.72;101988.03;5018920;28;20048;-83
2022/02/25 09:43:58;;;;;;;15.50;2.85;;;;;;;4.96;85.51;101998.44;5021847;28;20081;-85
2022/02/25 09:46:25;;;;;;;14.48;3.28;;;;;;;5.01;85.02;101979.22;5005960;28;20497;-83
2022/02/25 09:48:52;;;;;;;15.88;4.78;;;;;;;4.99;85.00;102003.38;5020570;28;20047;-82
2022/02/25 09:51:20;;;;;;;14.85;3.33;;;;;;;4.97;84.58;101991.84;5021287;28;20037;-84
2022/02/25 09:53:47;;;;;;;25.05;4.00;;;;;;;4.98;84.94;102007.22;5022236;28;20045;-84
2022/02/25 09:56:14;;;;;;;19.27;3.03;;;;;;;5.01;84.64;102011.31;5020444;28;20897;-82
2022/02/25 09:58:42;;;;;;;16.23;4.72;;;;;;;5.05;84.75;102009.69;5021308;28;20045;-84
2022/02/25 10:01:12;;;;;;;25.80;5.18;;;;;;;5.11;84.69;102014.88;5004302;28;20497;-84
2022/02/25 10:03:53;;;;;;;16.52;3.28;;;;;;;5.16;84.72;102023.13;5022474;28;20049;-84
2022/02/25 10:06:29;;;;;;;18.58;3.00;;;;;;;5.22;84.00;102021.97;5005451;28;20132;-84
2022/02/25 10:09:29;;;;;;;16.52;3.00;;;;;;;5.30;84.02;102021.41;4989914;28;20519;-83
2022/02/25 10:12:15;;;;;;;11.82;2.80;;;;;;;5.35;84.55;102013.16;5018352;28;20087;-83
2022/02/25 10:15:09;;;;;;;16.67;2.42;;;;;;;5.44;84.38;102027.13;5019616;28;20569;-86
2022/02/25 10:18:00;;;;;;;24.58;4.38;;;;;;;5.56;83.94;102030.38;5013428;28;20307;-89
2022/02/25 10:20:41;;;;;;;14.50;2.72;;;;;;;5.74;84.29;102021.53;4988903;28;20123;-83
2022/02/25 10:23:34;;;;;;;12.65;3.28;;;;;;;5.92;84.08;102034.66;5009301;28;20077;-88
2022/02/25 10:26:15;;;;;;;20.30;4.13;;;;;;;6.11;84.17;102041.16;5008281;28;20067;-81
2022/02/25 10:28:49;;;;;;;16.52;3.67;;;;;;;6.23;84.29;102027.06;5024561;28;20048;-82
2022/02/25 10:31:27;;;;;;;19.10;3.28;;;;;;;6.33;84.07;102031.69;5008588;28;20033;-82
2022/02/25 10:34:07;;;;;;;14.30;3.92;;;;;;;6.42;83.89;102041.78;5018129;28;20532;-82
2022/02/25 10:36:53;;;;;;;20.58;3.15;;;;;;;6.48;83.39;102046.16;5015621;28;20045;-82
2022/02/25 10:39:29;;;;;;;9.43;2.30;;;;;;;6.57;83.72;102036.16;5001629;28;20401;-82
2022/02/25 10:41:59;;;;;;;22.67;3.75;;;;;;;6.63;83.03;102043.28;4997052;28;20049;-82
2022/02/25 10:44:45;;;;;;;17.23;3.22;;;;;;;6.69;81.71;102041.31;5020087;28;20049;-81
2022/02/25 10:47:30;;;;;;;24.85;3.72;;;;;;;6.79;82.47;102045.88;5018523;28;20049;-84
2022/02/25 10:50:27;;;;;;;11.05;4.80;;;;;;;6.88;81.18;102047.75;5003894;28;20512;-80
2022/02/25 10:52:55;;;;;;;15.68;6.40;;;;;;;6.94;82.23;102040.25;5017914;28;20049;-83
2022/02/25 10:55:27;;;;;;;10.70;2.55;;;;;;;6.97;82.04;102031.41;5023381;28;20053;-82
2022/02/25 10:57:56;;;;;;;19.25;4.57;;;;;;;7.00;82.11;102041.84;5037767;28;20056;-84
2022/02/25 11:00:25;;;;;;;19.00;4.07;;;;;;;7.04;81.64;102048.44;5009980;28;20401;-84
2022/02/25 11:02:59;;;;;;;17.95;3.80;;;;;;;7.13;81.37;102043.91;5003219;28;20052;-84
2022/02/25 11:05:33;;;;;;;11.45;2.78;;;;;;;7.27;81.30;102036.63;5003540;28;20041;-84
2022/02/25 11:08:03;;;;;;;21.17;3.47;;;;;;;7.41;81.86;102045.84;5020031;28;20047;-84
2022/02/25 11:10:32;;;;;;;15.57;3.00;;;;;;;7.54;81.63;102039.63;5021730;28;20108;-84
2022/02/25 11:13:04;;;;;;;20.15;3.53;;;;;;;7.66;81.52;102033.69;5021092;28;20147;-83
2022/02/25 11:15:36;;;;;;;18.97;4.57;;;;;;;7.77;81.57;102036.03;5020151;28;20050;-84
2022/02/25 11:18:04;;;;;;;19.73;3.60;;;;;;;7.81;81.16;102045.34;5000461;28;20294;-84
2022/02/25 11:20:34;;;;;;;16.35;4.90;;;;;;;7.86;80.77;102039.75;5021272;28;20283;-83
2022/02/25 11:23:09;;;;;;;15.35;3.42;;;;;;;7.89;80.59;102028.16;5019896;28;20389;-85
2022/02/25 11:25:40;;;;;;;16.90;3.75;;;;;;;7.94;80.81;102035.56;5004219;28;20057;-85
2022/02/25 11:28:08;;;;;;;17.17;3.72;;;;;;;7.96;80.52;102030.56;5019024;28;20049;-84
2022/02/25 11:30:45;;;;;;;14.15;3.47;;;;;;;7.93;79.68;102036.66;4981905;28;20699;-85
2022/02/25 11:33:21;;;;;;;13.70;2.85;;;;;;;7.89;79.44;102039.19;5002161;28;20044;-85
2022/02/25 11:36:00;;;;;;;11.90;3.13;;;;;;;7.85;78.98;102040.91;5020310;28;20052;-84
2022/02/25 11:38:27;;;;;;;22.58;4.85;;;;;;;7.82;79.06;102044.25;5021361;28;20038;-83
2022/02/25 11:41:03;;;;;;;12.18;2.45;;;;;;;7.78;78.51;102043.16;5003326;28;20049;-85
2022/02/25 11:43:35;;;;;;;23.30;4.10;;;;;;;7.78;78.90;102037.66;5016059;28;20045;-85
2022/02/25 11:46:02;;;;;;;;;;;;;;;7.76;78.58;102042.66;5019831;28;20045;-83